ADDS METAR Data INFO
IDs: Format: Raw Decoded Include TAF

Data at: 0024 UTC 23 Oct 2017

PAMM 222356Z AUTO 21007KT 10SM SCT050 OVC060 10/06 A2985 RMK AO2 RAB03E29 SLP098 P0001 60003 T01000061 10111 20094 51052
PAMM 222256Z AUTO 21006KT 10SM OVC037 10/07 A2980 RMK AO2 SLP081 T01000072
PAMM 222156Z AUTO 22004KT 10SM BKN040 BKN048 OVC070 09/07 A2975 RMK AO2 RAB25E46 SLP064 P0002 T00940067
PAMM 221956Z AUTO 21007G14KT 10SM FEW023 OVC034 10/07 A2964 RMK AO2 RAB20E36 SLP029 P0000 T01000072 $
PAMM 221856Z AUTO 22007KT 10SM SCT060 OVC080 10/07 A2959 RMK AO2 RAE06 SLP010 P0000 T01000067
PAMM 221833Z AUTO 21006KT 10SM FEW028 OVC055 09/06 A2957 RMK AO2 RAE06 P0000
PAMM 221756Z AUTO 21008KT 10SM -RA OVC028 09/07 A2953 RMK AO2 RAB47 PRESRR SLP989 P0000 60004 T00940072 10094 20072 53054
PAMM 221710Z AUTO 19007KT 10SM FEW013 BKN025 OVC037 09/07 A2948 RMK AO2
PAMM 221656Z AUTO 18006KT 10SM FEW013 BKN030 OVC060 09/07 A2946 RMK AO2 RAE12 SLP968 P0000 T00890072
PAMM 221556Z AUTO 17007KT 10SM -RA FEW017 BKN027 OVC033 08/07 A2941 RMK AO2 RAE06B43 SLP951 P0000 T00830067
PAMM 221456Z AUTO 15007KT 120V180 10SM -RA OVC019 08/07 A2937 RMK AO2 SLP935 P0002 60004 T00830067 51034
PAMM 221356Z AUTO VRB05KT 10SM -RA OVC017 08/06 A2934 RMK AO2 RAB25 SLP925 P0002 T00780061
PAMM 221256Z AUTO 10008KT 10SM BKN022 OVC033 07/05 A2930 RMK AO2 RAB01E53 SLP912 P0000 T00720050
PAMM 221156Z AUTO 10007KT 050V130 10SM BKN027 BKN042 OVC049 07/04 A2927 RMK AO2 RAE52 SLP901 P0002 60005 70043 T00720044 10083 20067 53021
PAMM 221056Z AUTO 09009KT 10SM -RA BKN022 BKN027 OVC038 07/04 A2924 RMK AO2 SLP893 P0003 T00720044
PAMM 221024Z AUTO 09010KT 9SM -RA BKN022 OVC060 08/04 A2923 RMK AO2 P0001
PAMM 220956Z AUTO 08012KT 10SM -RA FEW027 OVC060 08/04 A2921 RMK AO2 RAB54 SLP883 P0000 T00830039
PAMM 220756Z AUTO 09008KT 10SM OVC024 08/04 A2919 RMK AO2 SLP876 T00780039 400830050
PAMM 220656Z AUTO 11007KT 070V160 10SM BKN026 OVC060 08/04 A2918 RMK AO2 SLP871 T00780039
PAMM 220608Z AUTO 09009KT 10SM OVC028 08/04 A2916 RMK AO2
PAMM 220456Z AUTO 08009KT 10SM OVC032 08/03 A2915 RMK AO2 SLP861 T00780033
PAMM 220356Z AUTO 07007KT 10SM OVC060 08/04 A2913 RMK AO2 SLP856 T00780039
PAMM 220346Z AUTO 00000KT 10SM FEW027 OVC060 08/04 A2913 RMK AO2
PAMM 220256Z AUTO 10009KT 10SM BKN025 OVC050 08/04 A2912 RMK AO2 RAB14E29 SLP854 P0000 60000 T00780039 55001
PAMM 220156Z AUTO 09009KT 10SM OVC023 08/04 A2912 RMK AO2 SLP851 T00780039
PAMM 220056Z AUTO 09014G23KT 10SM OVC021 08/04 A2912 RMK AO2 SLP852 T00780039
PAMM 212356Z AUTO 10010G21KT 10SM OVC021 08/04 A2913 RMK AO2 RAE28 SLP854 P0001 60015 T00780044 10083 20056 58001
PAMM 212256Z AUTO 10015G20KT 7SM -RA SCT023 BKN030 OVC042 07/04 A2914 RMK AO2 RAB41 SLP858 P0001 T00720039
PAMM 212156Z AUTO 11013G22KT 10SM BKN027 OVC036 08/04 A2914 RMK AO2 PK WND 10028/2103 RAE54 SLP859 P0000 T00780039
PAMM 212144Z AUTO 10016G21KT 10SM -RA BKN027 OVC035 07/04 A2914 RMK AO2 PK WND 10028/2103 P0000
PAMM 212056Z AUTO 11016G21KT 10SM -RA OVC030 07/03 A2913 RMK AO2 PK WND 10028/2014 SLP855 P0002 60013 T00720033 58004
PAMM 212051Z AUTO 11015G22KT 10SM -RA OVC030 07/03 A2914 RMK AO2 PK WND 10028/2014 P0002
PAMM 212020Z AUTO 10014G28KT 9SM -RA OVC029 07/03 A2913 RMK AO2 PK WND 10028/2014 P0001
PAMM 211756Z AUTO 08020G31KT 7SM -RA FEW026 SCT030 OVC036 06/03 A2917 RMK AO2 PK WND 09031/1750 SLP868 P0008 60023 T00560028 10072 20056 56040
PAMM 211656Z AUTO 09017G29KT 10SM -RA FEW023 BKN034 OVC045 06/03 A2921 RMK AO2 PK WND 09031/1604 SLP882 P0004 T00560028
PAMM 211556Z AUTO 07022G36KT 3SM RA BKN023 OVC028 06/02 A2923 RMK AO2 PK WND 08036/1547 SLP889 P0011 T00560022
PAMM 211522Z AUTO 09023G31KT 6SM -RA BKN025 OVC055 06/02 A2925 RMK AO2 PK WND 10031/1518 PRESFR P0004
PAMM 211456Z AUTO 11017G26KT 10SM -RA SCT050 OVC060 07/01 A2929 RMK AO2 PK WND 08034/1434 SLP908 P0000 60000 T00670011 58057
PAMM 211256Z AUTO 09017G23KT 10SM -RA FEW036 SCT043 BKN050 07/01 A2940 RMK AO2 PK WND 11026/1228 RAB15 SLP947 P0000 T00720011